Keene, NH (03431)

6:59 AM EDT on July 31, 2016 (GMT -0400)
Keene,Surry,Gilsum line-FN32UX | | Change Station

Elev 820 ft 42.98 °N, 72.30 °W | Updated 12 minutes ago

Rain
Rain Mist
62.1 °F
Feels Like 62.1 °F
N
0.0
Wind Variable Wind from NNW

Today
High -- | Low -- °F
--% Chance of Precip.
Yesterday
High -- | Low -- °F
Precip. -- in
Pressure 30.16 in
Visibility 5.0 miles
Clouds Clear
Dew Point 61 °F
Humidity 96%
Rainfall 0.02 in
Snow Depth Not available.
5:39 AM 8:10 PM
Waning Crescent, 7% visible
METAR KEEN 311056Z AUTO 00000KT 5SM RA BR CLR 18/17 A3011 RMK AO2 SLP211 P0004 T01780172
Pressure 30.16 in
Visibility 5.0 miles
Clouds Clear
Dew Point 61 °F
Humidity 96%
Rainfall 0.02 in
Snow Depth Not available.
5:39 AM 8:10 PM
Waning Crescent, 7% visible
METAR KEEN 311056Z AUTO 00000KT 5SM RA BR CLR 18/17 A3011 RMK AO2 SLP211 P0004 T01780172

10-Day Weather Forecast

Almanac

Astronomy

Jul. 31, 2016 Rise Set
Actual Time
Civil Twilight
Nautical Twilight
Astronomical Twilight
Moon
Length of Visible Light
Length of Day
Tomorrow will be .
, % of the Moon is Illuminated

Today's Extremes

State Highs State Lows

Community

WunderPhotos

Upload Photos

1,928,785 photos uploaded!

WunderBlog® & News

Nearby

Air Quality

  Air Quality AQ Index Pollutant
Not available.

Snow Depth

Station Depth Elevation

Earthquake Activity

City Distance Mag. Time & Date
Minimum magnitude displayed is 2.5.

Coastal Water Temperatures

Place Temperature

Stations

Nearby Weather Stations

Station Location Temp. Windchill Dew Point Humidity Wind Precip. Elev Updated Type
                   

Watches & Warnings

There are currently no watches in effect.